Weather at OSY-OS1ST Heliport

Public forecast

Using degrees Celsius for public forecast. Weather courtesy of forecast.io.

Closest aviation weather report (METAR) to OSY-OS1ST Heliport

Closest report is Oostende-Brugge International Airport, 23.0 nm (42.6 km) S.

2024/04/25 11:50 (retrieved 12 minutes ago)

EBOS 251150Z 22013KT 9999 -SHRA SCT035 BKN042 09/01 Q1005 NOSIG

Closest aviation forecast (TAF) to OSY-OS1ST Heliport

Closest forecast is Oostende-Brugge International Airport, 23.0 nm (42.6 km) S.

2024/04/25 12:27 (retrieved 0 seconds ago)

TAF EBOS 251115Z 2512/2618 22009KT 9999 SCT030 PROB30 TEMPO 2512/2517 24015G25KT 4000 SHRA BKN012TCU TEMPO 2519/2605 3500 RA SHRA SCT008 BKN012 BECMG 2603/2605 SCT008 BKN012 TEMPO 2605/2610 2500 RADZ SCT004 BKN008 BECMG 2616/2618 SCT015